Time;durP1;ratioP1;P1;durP2;ratioP2;P2;SDS_P1;SDS_P2;PMS_P1;PMS_P2;Temp;Humidity;BMP_temperature;BMP_pressure;BME280_temperature;BME280_humidity;BME280_pressure;Samples;Min_cycle;Max_cycle;Signal;HPM_P1;HPM_P2
2023/07/30 00:00:10;;;;;;;8.82;2.83;;;;;;;22.92;99.79;94269.00;5077640;28;20071;-85
2023/07/30 00:02:54;;;;;;;7.53;2.72;;;;;;;22.93;99.32;94265.97;5078207;28;20038;-85
2023/07/30 00:05:19;;;;;;;9.80;2.95;;;;;;;22.96;98.60;94267.94;5078106;28;20035;-86
2023/07/30 00:10:47;;;;;;;8.90;2.72;;;;;;;22.85;100.00;94273.03;5095905;28;20035;-86
2023/07/30 00:13:13;;;;;;;8.35;3.13;;;;;;;22.78;100.00;94272.91;5077300;28;20036;-85
2023/07/30 00:15:57;;;;;;;5.60;2.63;;;;;;;22.81;100.00;94274.09;5096246;28;20058;-86
2023/07/30 00:18:22;;;;;;;6.93;2.60;;;;;;;22.82;100.00;94276.41;5078183;28;20114;-86
2023/07/30 00:20:48;;;;;;;8.32;2.30;;;;;;;22.84;100.00;94263.47;5077099;28;20356;-86
2023/07/30 00:23:13;;;;;;;5.00;2.42;;;;;;;22.80;100.00;94256.50;5077731;28;20345;-86
2023/07/30 00:28:41;;;;;;;7.82;2.70;;;;;;;22.66;100.00;94263.06;5095683;28;20039;-86
2023/07/30 00:31:07;;;;;;;8.38;3.05;;;;;;;22.63;100.00;94263.03;5095543;28;20111;-85
2023/07/30 00:33:32;;;;;;;8.95;2.80;;;;;;;22.54;100.00;94268.53;5095732;28;20046;-85
2023/07/30 00:35:58;;;;;;;7.43;2.72;;;;;;;22.62;100.00;94262.22;5095828;28;20036;-86
2023/07/30 00:38:23;;;;;;;6.88;2.40;;;;;;;22.50;100.00;94267.66;5077742;28;20105;-86
2023/07/30 00:40:49;;;;;;;5.50;2.38;;;;;;;22.59;100.00;94257.59;5095280;28;20035;-87
2023/07/30 00:43:33;;;;;;;6.03;2.60;;;;;;;22.42;100.00;94248.81;5077631;28;20036;-86
2023/07/30 00:49:21;;;;;;;6.70;2.78;;;;;;;22.53;100.00;94243.72;5095009;28;20039;-86
2023/07/30 00:52:05;;;;;;;5.97;2.75;;;;;;;22.54;100.00;94231.94;5095434;28;20345;-86
2023/07/30 00:54:30;;;;;;;6.95;2.63;;;;;;;22.52;100.00;94228.06;5095954;28;20039;-86
2023/07/30 00:56:56;;;;;;;7.93;2.60;;;;;;;22.53;100.00;94230.38;5077593;28;20036;-86
2023/07/30 00:59:40;;;;;;;9.00;2.65;;;;;;;22.57;100.00;94219.78;5076716;28;20097;-85
2023/07/30 01:02:06;;;;;;;6.53;2.85;;;;;;;22.53;100.00;94205.59;5095567;28;20082;-86
2023/07/30 01:04:32;;;;;;;8.30;2.70;;;;;;;22.69;100.00;94237.59;5061947;28;20032;-86
2023/07/30 01:07:16;;;;;;;10.25;2.72;;;;;;;22.70;100.00;94242.59;5081394;28;20040;-86
2023/07/30 01:12:26;;;;;;;6.38;3.03;;;;;;;22.59;100.00;94238.91;5099643;28;20038;-86
2023/07/30 01:14:52;;;;;;;6.97;3.05;;;;;;;22.78;100.00;94251.53;5064627;28;20500;-86
2023/07/30 01:17:18;;;;;;;5.70;2.60;;;;;;;22.85;100.00;94258.94;5081467;28;20039;-86
2023/07/30 01:19:43;;;;;;;7.05;2.78;;;;;;;22.77;100.00;94276.69;5099044;28;20039;-86
2023/07/30 01:22:09;;;;;;;8.20;2.65;;;;;;;22.56;100.00;94283.06;5080993;28;20038;-85
2023/07/30 01:24:53;;;;;;;7.40;2.78;;;;;;;22.41;100.00;94284.63;5081061;28;20067;-85
2023/07/30 01:27:46;;;;;;;6.97;2.80;;;;;;;22.44;100.00;94291.16;5099090;28;20035;-85
2023/07/30 01:30:19;;;;;;;6.85;2.55;;;;;;;22.47;100.00;94290.47;5078121;28;20364;-86
2023/07/30 01:32:49;;;;;;;7.20;2.70;;;;;;;22.37;100.00;94283.75;5081222;28;20419;-86
2023/07/30 01:35:15;;;;;;;4.93;2.80;;;;;;;22.23;100.00;94273.50;5081170;28;20092;-85
2023/07/30 01:37:41;;;;;;;6.13;2.90;;;;;;;22.26;100.00;94267.47;5099253;28;20043;-86
2023/07/30 01:40:07;;;;;;;8.10;3.13;;;;;;;22.00;100.00;94266.09;5080401;28;20131;-86
2023/07/30 01:48:02;;;;;;;7.38;2.83;;;;;;;21.79;100.00;94292.97;5083274;28;20097;-85
2023/07/30 01:50:49;;;;;;;4.90;2.78;;;;;;;21.80;100.00;94289.19;5098517;28;20028;-86
2023/07/30 01:53:15;;;;;;;5.95;2.67;;;;;;;21.81;100.00;94297.97;5107797;28;20031;-86
2023/07/30 01:55:46;;;;;;;7.35;3.10;;;;;;;21.85;100.00;94299.63;5100670;28;20042;-86
2023/07/30 01:58:12;;;;;;;8.00;3.00;;;;;;;21.80;100.00;94299.84;5101922;28;20329;-86
2023/07/30 02:00:38;;;;;;;10.98;3.10;;;;;;;21.69;100.00;94296.16;5119068;28;20031;-87
2023/07/30 02:05:48;;;;;;;9.52;3.03;;;;;;;21.60;100.00;94273.03;5101451;28;20104;-87
2023/07/30 02:08:15;;;;;;;6.68;2.95;;;;;;;21.62;100.00;94283.38;5100870;28;20035;-87
2023/07/30 02:10:41;;;;;;;7.00;3.00;;;;;;;21.61;100.00;94293.25;5115812;28;20122;-87
2023/07/30 02:13:07;;;;;;;4.75;2.65;;;;;;;21.67;100.00;94279.72;5083140;28;20131;-87
2023/07/30 02:15:32;;;;;;;9.10;2.97;;;;;;;21.71;100.00;94278.69;5099079;28;20386;-87
2023/07/30 02:17:57;;;;;;;6.80;2.90;;;;;;;21.01;100.00;94275.22;5118413;28;20039;-86
2023/07/30 02:26:09;;;;;;;8.02;3.47;;;;;;;20.94;100.00;94290.97;5115783;28;20080;-86
2023/07/30 02:28:35;;;;;;;12.90;3.88;;;;;;;20.74;100.00;94296.06;5117744;28;20035;-86
2023/07/30 02:31:00;;;;;;;10.73;3.65;;;;;;;20.46;100.00;94310.03;5083015;28;20063;-88
2023/07/30 02:33:26;;;;;;;8.75;3.60;;;;;;;20.39;100.00;94299.19;5099997;28;20030;-87
2023/07/30 02:35:52;;;;;;;8.98;4.03;;;;;;;20.14;100.00;94301.00;5100254;28;20032;-86
2023/07/30 02:38:17;;;;;;;10.00;4.68;;;;;;;20.17;100.00;94300.38;5118125;28;20057;-86
2023/07/30 02:40:42;;;;;;;8.52;3.72;;;;;;;19.96;100.00;94295.88;5117940;28;20454;-86
2023/07/30 02:43:08;;;;;;;12.55;4.60;;;;;;;19.81;100.00;94289.28;5118038;28;20164;-86
2023/07/30 02:45:52;;;;;;;8.50;3.92;;;;;;;19.61;100.00;94283.69;5118069;28;20095;-86
2023/07/30 02:48:17;;;;;;;9.30;4.13;;;;;;;19.52;100.00;94282.19;5118222;28;20701;-86
2023/07/30 02:51:02;;;;;;;11.50;3.75;;;;;;;19.64;100.00;94290.22;5117091;28;20034;-86
2023/07/30 02:53:27;;;;;;;7.93;3.85;;;;;;;19.53;100.00;94297.84;5099291;28;20027;-86
2023/07/30 02:55:52;;;;;;;12.40;4.22;;;;;;;19.44;100.00;94289.94;5117443;28;20019;-86
2023/07/30 02:58:18;;;;;;;6.90;3.42;;;;;;;19.50;100.00;94293.16;5116414;28;20035;-86
2023/07/30 03:00:43;;;;;;;11.77;3.63;;;;;;;19.39;100.00;94289.34;5116920;28;20027;-86
2023/07/30 03:03:09;;;;;;;8.13;3.67;;;;;;;19.46;100.00;94285.06;5117392;28;20039;-86
2023/07/30 03:05:34;;;;;;;10.18;3.35;;;;;;;19.29;100.00;94280.66;5117857;28;20046;-86
2023/07/30 03:07:59;;;;;;;13.93;4.60;;;;;;;19.40;100.00;94291.66;5099047;28;20035;-86
2023/07/30 03:10:25;;;;;;;10.23;3.88;;;;;;;19.44;100.00;94287.28;5116962;28;20031;-87
2023/07/30 03:12:50;;;;;;;7.70;3.50;;;;;;;19.34;100.00;94283.13;5117718;28;20028;-87
2023/07/30 03:15:16;;;;;;;6.05;3.42;;;;;;;19.46;100.00;94285.06;5118240;28;20039;-86
2023/07/30 03:18:00;;;;;;;9.65;3.58;;;;;;;19.57;100.00;94292.63;5117064;28;20036;-86
2023/07/30 03:20:25;;;;;;;10.15;3.28;;;;;;;19.58;100.00;94292.31;5116686;28;20027;-87
2023/07/30 03:22:51;;;;;;;9.57;3.92;;;;;;;19.51;100.00;94286.75;5082262;28;20459;-86
2023/07/30 03:25:35;;;;;;;8.27;3.35;;;;;;;19.16;100.00;94289.66;5082515;28;20495;-87
2023/07/30 03:28:19;;;;;;;10.05;3.20;;;;;;;18.78;100.00;94288.63;5116304;28;20088;-87
2023/07/30 03:30:44;;;;;;;;;;;;;;;19.19;100.00;94291.69;5099111;28;20037;-86
2023/07/30 03:33:09;;;;;;;5.57;3.28;;;;;;;19.30;100.00;94292.09;5099184;28;20380;-86
2023/07/30 03:41:22;;;;;;;8.73;3.28;;;;;;;19.16;100.00;94285.16;5101505;28;20076;-86
2023/07/30 03:43:47;;;;;;;7.18;3.63;;;;;;;19.14;100.00;94294.53;5082151;28;20030;-87
2023/07/30 03:46:21;;;;;;;12.95;3.40;;;;;;;18.89;100.00;94297.00;5099180;28;20421;-87
2023/07/30 03:48:46;;;;;;;5.90;3.33;;;;;;;18.33;100.00;94290.72;5117043;28;20419;-86
2023/07/30 03:51:12;;;;;;;9.90;3.38;;;;;;;18.69;100.00;94282.59;5116979;28;20055;-86
2023/07/30 03:53:56;;;;;;;10.02;4.00;;;;;;;18.76;100.00;94285.53;5098562;28;20114;-86
2023/07/30 03:56:22;;;;;;;9.60;3.42;;;;;;;18.75;100.00;94279.44;5098421;28;20114;-86
2023/07/30 03:59:06;;;;;;;8.70;3.47;;;;;;;19.13;100.00;94269.84;5098154;28;20110;-86
2023/07/30 04:01:50;;;;;;;7.43;3.65;;;;;;;19.24;100.00;94275.56;5098294;28;20023;-86
2023/07/30 04:04:34;;;;;;;5.05;3.17;;;;;;;19.05;100.00;94268.03;5116684;28;20020;-86
2023/07/30 04:06:59;;;;;;;14.82;3.28;;;;;;;18.98;100.00;94265.88;5081535;28;20028;-86
2023/07/30 04:09:25;;;;;;;8.25;3.42;;;;;;;19.10;100.00;94264.44;5116339;28;20118;-87
2023/07/30 04:12:09;;;;;;;7.18;3.50;;;;;;;19.08;100.00;94267.38;5098760;28;20344;-86
2023/07/30 04:14:54;;;;;;;10.50;3.35;;;;;;;18.93;100.00;94264.19;5098353;28;20035;-86
2023/07/30 04:17:19;;;;;;;12.90;3.55;;;;;;;18.48;100.00;94264.75;5081565;28;20051;-86
2023/07/30 04:19:45;;;;;;;8.80;4.35;;;;;;;18.14;100.00;94259.28;5097745;28;20078;-86
2023/07/30 04:22:10;;;;;;;7.78;3.92;;;;;;;18.00;100.00;94263.97;5116214;28;20039;-86
2023/07/30 04:25:13;;;;;;;9.90;4.03;;;;;;;18.26;100.00;94265.81;5097830;28;20023;-86
2023/07/30 04:27:57;;;;;;;12.10;4.10;;;;;;;18.77;100.00;94271.16;5114907;28;20034;-86
2023/07/30 04:30:26;;;;;;;7.90;3.65;;;;;;;18.64;100.00;94271.06;5097367;28;20048;-86
2023/07/30 04:32:51;;;;;;;11.50;3.70;;;;;;;18.91;100.00;94266.38;5080292;28;20035;-86
2023/07/30 04:35:17;;;;;;;8.18;4.13;;;;;;;18.41;100.00;94269.78;5097379;28;20061;-86
2023/07/30 04:37:42;;;;;;;6.63;3.20;;;;;;;18.44;100.00;94272.56;5115211;28;20047;-86
2023/07/30 04:40:08;;;;;;;9.93;4.20;;;;;;;18.70;100.00;94274.31;5097234;28;20118;-86
2023/07/30 04:42:34;;;;;;;5.13;3.53;;;;;;;18.93;100.00;94261.53;5080706;28;20062;-86
2023/07/30 04:44:59;;;;;;;5.57;3.30;;;;;;;18.48;100.00;94273.47;5097075;28;20039;-86
2023/07/30 04:47:43;;;;;;;6.97;3.72;;;;;;;18.53;100.00;94269.13;5097302;28;20340;-86
2023/07/30 04:50:27;;;;;;;8.35;3.53;;;;;;;18.68;100.00;94273.06;5114857;28;20400;-86
2023/07/30 04:53:11;;;;;;;10.00;4.53;;;;;;;18.74;100.00;94271.81;5097472;28;20038;-86
2023/07/30 04:55:37;;;;;;;11.30;3.28;;;;;;;19.23;100.00;94270.56;5115195;28;20029;-87
2023/07/30 04:58:03;;;;;;;8.32;4.03;;;;;;;19.58;100.00;94264.94;5115919;28;20035;-86
2023/07/30 05:00:30;;;;;;;8.85;3.83;;;;;;;19.74;100.00;94273.09;5080636;28;20384;-87
2023/07/30 05:02:56;;;;;;;8.27;3.28;;;;;;;19.77;100.00;94275.09;5097826;28;20068;-87
2023/07/30 05:05:21;;;;;;;7.03;3.20;;;;;;;20.01;100.00;94271.75;5116206;28;20090;-87
2023/07/30 05:07:47;;;;;;;6.65;3.67;;;;;;;19.64;100.00;94269.72;5098322;28;20033;-87
2023/07/30 05:15:59;;;;;;;6.43;3.53;;;;;;;20.01;100.00;94270.97;5095258;28;20479;-87
2023/07/30 05:18:43;;;;;;;7.55;4.00;;;;;;;19.97;100.00;94283.38;5077284;28;20028;-86
2023/07/30 05:21:09;;;;;;;6.50;4.10;;;;;;;19.25;100.00;94268.34;5095527;28;20040;-86
2023/07/30 05:23:34;;;;;;;10.43;4.30;;;;;;;19.20;100.00;94280.75;5077212;28;20030;-86
2023/07/30 05:26:00;;;;;;;9.77;4.00;;;;;;;19.29;100.00;94282.53;5077231;28;20086;-87
2023/07/30 05:28:26;;;;;;;10.25;3.58;;;;;;;19.77;100.00;94280.41;5060702;28;20021;-86
2023/07/30 05:30:51;;;;;;;13.05;3.88;;;;;;;19.98;100.00;94276.97;5095247;28;20049;-86
2023/07/30 05:33:17;;;;;;;7.78;3.45;;;;;;;20.01;100.00;94279.75;5095252;28;20028;-86
2023/07/30 05:36:01;;;;;;;11.82;4.30;;;;;;;20.01;100.00;94282.41;5093926;28;20359;-86
2023/07/30 05:38:47;;;;;;;12.52;4.45;;;;;;;20.23;100.00;94283.09;5095263;28;20697;-86
2023/07/30 05:44:15;;;;;;;8.75;3.17;;;;;;;20.15;100.00;94295.38;5094885;28;20353;-87
2023/07/30 05:46:41;;;;;;;5.18;3.70;;;;;;;20.19;100.00;94290.94;5094717;28;20147;-86
2023/07/30 05:49:06;;;;;;;13.75;3.70;;;;;;;20.12;100.00;94290.72;5094386;28;20421;-86
2023/07/30 05:51:32;;;;;;;5.70;3.10;;;;;;;20.73;100.00;94291.88;5097859;28;20110;-85
2023/07/30 05:56:41;;;;;;;6.07;3.17;;;;;;;21.22;100.00;94289.50;5098258;28;20127;-86
2023/07/30 05:59:07;;;;;;;8.35;3.08;;;;;;;21.07;100.00;94297.06;5097564;28;20107;-86
2023/07/30 06:01:32;;;;;;;10.38;3.53;;;;;;;20.88;100.00;94287.78;5098378;28;20429;-86
2023/07/30 06:03:58;;;;;;;8.88;3.38;;;;;;;21.36;100.00;94287.22;5098169;28;20046;-86
2023/07/30 06:06:26;;;;;;;7.15;3.03;;;;;;;21.31;100.00;94290.91;5098054;28;20399;-85
2023/07/30 06:08:52;;;;;;;11.85;3.20;;;;;;;21.50;100.00;94291.41;5097937;28;20035;-86
2023/07/30 06:11:18;;;;;;;10.90;3.20;;;;;;;21.51;100.00;94292.97;5097945;28;20077;-86
2023/07/30 06:13:43;;;;;;;8.93;3.65;;;;;;;21.54;100.00;94295.72;5079545;28;20035;-86
2023/07/30 06:16:10;;;;;;;5.68;3.35;;;;;;;21.95;100.00;94300.22;5079978;28;20105;-85
2023/07/30 06:18:35;;;;;;;6.85;3.55;;;;;;;22.05;100.00;94302.41;5088387;28;20069;-85
2023/07/30 06:21:19;;;;;;;7.50;2.80;;;;;;;21.96;100.00;94301.81;5118611;28;20079;-85
2023/07/30 06:24:22;;;;;;;6.88;3.03;;;;;;;22.13;100.00;94306.03;5118434;28;20027;-85
2023/07/30 06:26:48;;;;;;;7.55;3.47;;;;;;;22.11;100.00;94311.72;5118285;28;20433;-85
2023/07/30 06:29:13;;;;;;;10.88;3.22;;;;;;;21.89;100.00;94313.06;5099625;28;20024;-85
2023/07/30 06:31:38;;;;;;;5.45;2.83;;;;;;;22.37;100.00;94315.00;5118306;28;20425;-86
2023/07/30 06:36:48;;;;;;;9.32;3.45;;;;;;;22.10;100.00;94310.19;5102521;28;20462;-86
2023/07/30 06:39:14;;;;;;;6.97;3.05;;;;;;;22.62;100.00;94312.19;5117665;28;20110;-86
2023/07/30 06:41:39;;;;;;;7.75;3.17;;;;;;;22.81;100.00;94314.13;5111732;28;20035;-86
2023/07/30 06:44:04;;;;;;;7.22;3.08;;;;;;;22.77;100.00;94310.63;5101048;28;20046;-85
2023/07/30 06:46:48;;;;;;;7.43;3.40;;;;;;;22.77;100.00;94315.97;5117789;28;20076;-85
2023/07/30 06:49:14;;;;;;;6.57;3.42;;;;;;;22.99;100.00;94312.66;5117753;28;20035;-86
2023/07/30 06:51:58;;;;;;;7.05;3.83;;;;;;;22.86;100.00;94319.22;5117829;28;20037;-84
2023/07/30 06:54:23;;;;;;;6.13;3.30;;;;;;;22.83;100.00;94317.25;5117798;28;20035;-86
2023/07/30 06:56:48;;;;;;;5.45;3.13;;;;;;;23.23;100.00;94312.78;5117967;28;20031;-86
2023/07/30 07:01:59;;;;;;;7.80;3.65;;;;;;;23.14;100.00;94302.28;5116326;28;20030;-85
2023/07/30 07:04:24;;;;;;;7.22;3.60;;;;;;;23.42;100.00;94296.78;5124403;27;20027;-84
2023/07/30 07:06:50;;;;;;;7.80;3.60;;;;;;;22.91;100.00;94304.84;5137956;27;20446;-85
2023/07/30 07:09:15;;;;;;;5.85;3.55;;;;;;;23.06;100.00;94312.03;5137926;27;20037;-85
2023/07/30 07:11:41;;;;;;;8.38;2.95;;;;;;;22.91;100.00;94308.28;5137972;27;20027;-85
2023/07/30 07:14:25;;;;;;;7.07;3.17;;;;;;;23.49;100.00;94314.09;5137925;27;20015;-85
2023/07/30 07:16:52;;;;;;;9.95;3.83;;;;;;;23.62;100.00;94309.38;5138071;27;20368;-86
2023/07/30 07:19:36;;;;;;;7.72;3.55;;;;;;;23.79;100.00;94303.59;5098566;28;20403;-85
2023/07/30 07:22:05;;;;;;;9.70;3.20;;;;;;;23.79;100.00;94300.91;5097023;28;20047;-84
2023/07/30 07:24:31;;;;;;;6.25;3.22;;;;;;;23.63;100.00;94308.25;5078561;28;20349;-85
2023/07/30 07:29:40;;;;;;;6.95;3.55;;;;;;;24.16;100.00;94305.03;5096230;28;20031;-85
2023/07/30 07:32:06;;;;;;;8.35;3.15;;;;;;;24.24;100.00;94306.72;5096800;28;20035;-87
2023/07/30 07:34:50;;;;;;;6.22;3.30;;;;;;;23.81;100.00;94297.91;5062979;28;20016;-86
2023/07/30 07:37:18;;;;;;;8.25;3.33;;;;;;;24.05;100.00;94299.50;5092979;28;20042;-86
2023/07/30 07:40:03;;;;;;;8.63;3.50;;;;;;;24.32;100.00;94299.59;5081435;28;20084;-87
2023/07/30 07:42:30;;;;;;;12.48;3.90;;;;;;;24.31;100.00;94292.69;5079145;28;20040;-86
2023/07/30 07:44:55;;;;;;;7.45;3.28;;;;;;;24.37;100.00;94301.94;5096530;28;20028;-86
2023/07/30 07:47:40;;;;;;;7.90;3.75;;;;;;;24.43;100.00;94299.75;5084696;28;20352;-85
2023/07/30 07:50:06;;;;;;;6.10;3.30;;;;;;;24.56;100.00;94301.09;5097923;28;20062;-87
2023/07/30 07:52:31;;;;;;;11.20;3.25;;;;;;;24.37;100.00;94301.19;5117137;28;20059;-86
2023/07/30 07:55:16;;;;;;;10.80;2.90;;;;;;;24.67;100.00;94303.19;5098667;28;20074;-86
2023/07/30 07:57:42;;;;;;;7.93;3.50;;;;;;;24.87;100.00;94300.44;5098546;28;20036;-85
2023/07/30 08:00:08;;;;;;;5.88;2.88;;;;;;;24.91;100.00;94304.72;5098214;28;20073;-87
2023/07/30 08:02:34;;;;;;;11.80;3.05;;;;;;;25.11;100.00;94308.06;5098977;28;20037;-87
2023/07/30 08:05:00;;;;;;;8.30;3.20;;;;;;;25.18;100.00;94302.03;5080790;28;20031;-84
2023/07/30 08:07:25;;;;;;;8.90;3.15;;;;;;;25.14;100.00;94317.28;5080207;28;20023;-85
2023/07/30 08:09:51;;;;;;;6.10;3.05;;;;;;;25.06;100.00;94305.72;5080054;28;20118;-85
2023/07/30 08:12:35;;;;;;;7.25;3.65;;;;;;;25.38;100.00;94310.72;5097087;28;20084;-85
2023/07/30 08:15:01;;;;;;;10.15;3.00;;;;;;;24.82;100.00;94309.56;5096679;28;20032;-84
2023/07/30 08:20:11;;;;;;;10.43;3.10;;;;;;;24.99;100.00;94310.94;5114528;28;20116;-85
2023/07/30 08:22:36;;;;;;;10.85;3.67;;;;;;;25.06;100.00;94307.59;5096822;28;20073;-85
2023/07/30 08:25:21;;;;;;;9.15;3.17;;;;;;;24.70;100.00;94313.19;5096448;28;20035;-86
2023/07/30 08:27:46;;;;;;;5.05;3.00;;;;;;;25.03;100.00;94313.69;5115037;28;20084;-85
2023/07/30 08:30:12;;;;;;;13.00;3.50;;;;;;;24.93;100.00;94312.41;5079257;28;20039;-86
2023/07/30 08:32:37;;;;;;;8.50;3.00;;;;;;;24.59;100.00;94310.34;5096755;28;20578;-85
2023/07/30 08:35:04;;;;;;;6.88;3.17;;;;;;;24.49;100.00;94309.03;5096549;28;20012;-85
2023/07/30 08:37:30;;;;;;;6.97;3.70;;;;;;;24.34;100.00;94313.38;5079889;28;20564;-86
2023/07/30 08:42:39;;;;;;;10.52;3.40;;;;;;;25.19;100.00;94314.28;5114484;28;20058;-87
2023/07/30 08:45:06;;;;;;;7.47;2.85;;;;;;;25.15;100.00;94316.16;5079877;28;20397;-84
2023/07/30 08:47:32;;;;;;;6.90;3.20;;;;;;;24.94;100.00;94317.38;5114402;28;20106;-86
2023/07/30 08:49:57;;;;;;;6.28;3.20;;;;;;;24.74;100.00;94326.63;5113911;28;20390;-84
2023/07/30 08:52:23;;;;;;;8.07;3.60;;;;;;;25.23;100.00;94327.75;5114550;28;20060;-86
2023/07/30 08:54:49;;;;;;;8.02;3.35;;;;;;;24.66;100.00;94331.09;5114465;28;20031;-87
2023/07/30 08:57:16;;;;;;;7.93;3.50;;;;;;;24.31;100.00;94327.47;5097090;28;20035;-85
2023/07/30 08:59:48;;;;;;;6.45;3.17;;;;;;;24.40;100.00;94324.56;5096013;28;20040;-85
2023/07/30 09:02:18;;;;;;;3.88;2.90;;;;;;;24.71;100.00;94328.91;5079492;28;20084;-85
2023/07/30 09:05:05;;;;;;;11.20;3.72;;;;;;;25.24;100.00;94324.69;5095982;28;20398;-85
2023/07/30 09:07:31;;;;;;;6.72;2.83;;;;;;;25.53;100.00;94322.41;5114345;28;20115;-84
2023/07/30 09:09:56;;;;;;;5.93;3.20;;;;;;;25.76;100.00;94318.84;5095577;28;20061;-84
2023/07/30 09:12:54;;;;;;;6.82;2.65;;;;;;;25.93;100.00;94327.47;5096123;28;20027;-84
2023/07/30 09:15:29;;;;;;;7.85;2.95;;;;;;;25.31;100.00;94318.66;5096101;28;20516;-85
2023/07/30 09:17:55;;;;;;;5.60;2.95;;;;;;;25.13;100.00;94323.78;5111830;28;20352;-83
2023/07/30 09:23:06;;;;;;;7.10;3.00;;;;;;;24.75;100.00;94322.81;5119767;28;20038;-83
2023/07/30 09:25:32;;;;;;;5.70;2.92;;;;;;;24.97;100.00;94319.38;5098145;28;20411;-85
2023/07/30 09:28:16;;;;;;;6.50;2.97;;;;;;;25.54;100.00;94317.81;5116531;28;20114;-84
2023/07/30 09:30:41;;;;;;;9.27;3.08;;;;;;;25.44;100.00;94316.53;5079200;28;20412;-85
2023/07/30 09:33:26;;;;;;;7.18;2.70;;;;;;;25.67;100.00;94315.66;5097966;28;20036;-84
2023/07/30 09:35:53;;;;;;;7.07;2.90;;;;;;;25.90;100.00;94317.47;5097596;28;20027;-85
2023/07/30 09:38:19;;;;;;;7.30;3.20;;;;;;;26.34;100.00;94311.41;5079790;28;20043;-84
2023/07/30 09:40:47;;;;;;;37.00;3.60;;;;;;;25.42;100.00;94316.13;5097001;28;20023;-83
2023/07/30 09:43:13;;;;;;;10.95;2.80;;;;;;;25.94;100.00;94311.00;5097674;28;20027;-84
2023/07/30 09:45:38;;;;;;;6.25;3.28;;;;;;;25.85;100.00;94309.75;5079300;28;20126;-85
2023/07/30 09:48:05;;;;;;;9.90;3.38;;;;;;;26.28;100.00;94309.41;5079051;28;20024;-85
2023/07/30 09:50:31;;;;;;;8.48;3.10;;;;;;;25.95;100.00;94311.75;5078699;28;20039;-85
2023/07/30 09:52:58;;;;;;;6.65;2.70;;;;;;;25.96;100.00;94313.31;5062571;28;20349;-85
2023/07/30 09:55:24;;;;;;;4.93;2.47;;;;;;;25.73;100.00;94318.81;5079061;28;20032;-84
2023/07/30 09:57:49;;;;;;;11.07;2.78;;;;;;;26.30;100.00;94313.28;5096960;28;20493;-87
2023/07/30 10:00:15;;;;;;;7.25;2.95;;;;;;;26.23;100.00;94302.47;5079194;28;20052;-85
2023/07/30 10:02:47;;;;;;;5.75;3.30;;;;;;;25.88;100.00;94306.34;5078816;28;20111;-85
2023/07/30 10:05:18;;;;;;;7.97;2.75;;;;;;;25.95;100.00;94309.84;5061840;28;20036;-86
2023/07/30 10:10:49;;;;;;;6.05;3.00;;;;;;;26.56;100.00;94310.81;5081180;28;20032;-86
2023/07/30 10:13:16;;;;;;;6.82;2.80;;;;;;;26.43;100.00;94310.34;5061948;28;20728;-87
2023/07/30 10:15:41;;;;;;;5.78;3.15;;;;;;;26.37;100.00;94312.59;5079437;28;20468;-85
2023/07/30 10:18:07;;;;;;;5.75;3.08;;;;;;;26.44;100.00;94309.19;5078989;28;20051;-85
2023/07/30 10:20:32;;;;;;;8.05;3.00;;;;;;;26.28;100.00;94302.16;5085015;28;20455;-85
2023/07/30 10:23:17;;;;;;;5.78;3.10;;;;;;;26.13;100.00;94297.75;5099731;28;20568;-85
2023/07/30 10:26:05;;;;;;;8.82;3.22;;;;;;;26.37;100.00;94302.59;5100065;28;20039;-85
2023/07/30 10:28:35;;;;;;;7.45;2.95;;;;;;;26.29;100.00;94286.78;5114384;28;20612;-84
2023/07/30 10:31:03;;;;;;;7.10;2.90;;;;;;;26.24;100.00;94298.66;5076737;28;20432;-83
2023/07/30 10:33:45;;;;;;;5.43;2.97;;;;;;;25.84;100.00;94303.59;5117591;28;20019;-85
2023/07/30 10:36:11;;;;;;;6.90;2.90;;;;;;;25.92;100.00;94299.88;5117635;28;20034;-86
2023/07/30 10:38:36;;;;;;;8.13;3.10;;;;;;;26.35;100.00;94304.88;5099254;28;20039;-85
2023/07/30 10:41:21;;;;;;;8.50;3.10;;;;;;;26.37;100.00;94302.59;5117899;28;20043;-87
2023/07/30 10:43:49;;;;;;;10.73;2.90;;;;;;;26.42;100.00;94301.50;5081581;28;20344;-87
2023/07/30 10:48:59;;;;;;;8.18;2.92;;;;;;;26.96;100.00;94312.66;5102151;28;20076;-87
2023/07/30 10:51:25;;;;;;;4.78;2.80;;;;;;;27.04;100.00;94312.72;5099444;28;20374;-85
2023/07/30 10:53:51;;;;;;;9.73;3.15;;;;;;;26.84;100.00;94302.22;5099380;28;20475;-83
2023/07/30 10:56:23;;;;;;;3.90;2.53;;;;;;;26.94;100.00;94295.38;5099137;28;20024;-84
2023/07/30 10:58:53;;;;;;;5.45;2.28;;;;;;;27.70;100.00;94300.38;5099284;28;20028;-84
2023/07/30 11:01:18;;;;;;;3.75;2.42;;;;;;;27.61;100.00;94298.03;5099401;28;20035;-85
2023/07/30 11:04:06;;;;;;;5.22;2.65;;;;;;;27.49;100.00;94304.50;5117316;28;20039;-84
2023/07/30 11:10:01;;;;;;;9.45;3.00;;;;;;;27.92;100.00;94301.22;5116509;28;20088;-84
2023/07/30 11:12:26;;;;;;;4.75;2.45;;;;;;;28.11;100.00;94296.63;5084016;28;20032;-86
2023/07/30 11:55:12;;;;;;;5.43;2.90;;;;;;;28.79;100.00;94285.13;5292312;22;20372;-90
2023/07/30 12:00:22;;;;;;;5.40;2.58;;;;;;;28.54;100.00;94280.53;5052398;28;20339;-90
2023/07/30 12:05:35;;;;;;;5.72;2.58;;;;;;;28.14;100.00;94277.03;5036419;28;20080;-88
2023/07/30 12:08:25;;;;;;;5.65;2.60;;;;;;;27.88;100.00;94285.03;5020237;28;20127;-88
2023/07/30 12:13:45;;;;;;;6.45;2.80;;;;;;;28.51;100.00;94284.00;5036345;28;20032;-90
2023/07/30 12:16:11;;;;;;;4.85;2.75;;;;;;;29.20;96.84;94276.59;5036801;28;20038;-88
2023/07/30 12:18:40;;;;;;;4.22;2.72;;;;;;;29.72;90.84;94267.19;5036678;28;20440;-93
2023/07/30 12:21:27;;;;;;;4.95;2.72;;;;;;;29.26;91.69;94271.56;5036066;28;20029;-91
2023/07/30 12:23:52;;;;;;;4.50;2.75;;;;;;;29.75;90.07;94268.31;5036019;28;20417;-88
2023/07/30 12:26:38;;;;;;;5.55;2.95;;;;;;;29.65;93.73;94269.16;5039153;28;20124;-95
2023/07/30 12:29:06;;;;;;;6.60;2.65;;;;;;;29.63;85.52;94264.91;5037584;28;20477;-90
2023/07/30 12:31:53;;;;;;;9.45;2.67;;;;;;;28.56;93.06;94267.44;5035682;28;20091;-90
2023/07/30 12:34:39;;;;;;;5.63;2.40;;;;;;;27.88;97.79;94270.81;5036529;28;20048;-90
2023/07/30 12:37:24;;;;;;;5.07;2.65;;;;;;;28.41;94.01;94263.22;5037118;28;20462;-88
2023/07/30 12:45:37;;;;;;;5.13;2.50;;;;;;;28.42;93.97;94262.81;5056032;28;20067;-94
2023/07/30 12:48:03;;;;;;;5.93;2.60;;;;;;;29.97;89.09;94257.41;5055832;28;20086;-92
2023/07/30 12:50:47;;;;;;;6.75;2.80;;;;;;;28.88;91.92;94257.78;5046945;28;20022;-90
2023/07/30 12:53:12;;;;;;;6.70;3.20;;;;;;;28.60;92.36;94254.75;5035925;28;20026;-88
2023/07/30 12:55:38;;;;;;;6.13;3.00;;;;;;;28.27;91.20;94250.50;5035807;28;20370;-90
2023/07/30 12:58:04;;;;;;;6.15;3.20;;;;;;;27.69;98.98;94243.09;5052257;28;20032;-91
2023/07/30 13:00:29;;;;;;;6.85;2.90;;;;;;;27.89;99.05;94237.38;5019090;28;20350;-92
2023/07/30 13:02:57;;;;;;;4.30;2.70;;;;;;;27.87;100.00;94253.13;5015631;28;20069;-90
2023/07/30 13:05:23;;;;;;;6.57;2.60;;;;;;;28.86;90.44;94249.31;5049194;28;20060;-90
2023/07/30 13:07:48;;;;;;;7.20;2.78;;;;;;;27.83;97.85;94246.97;5038919;28;20064;-91
2023/07/30 13:13:17;;;;;;;4.63;2.70;;;;;;;28.81;94.65;94249.75;5055743;28;20044;-91
2023/07/30 13:15:44;;;;;;;3.83;2.42;;;;;;;28.91;89.15;94247.00;5038743;28;20029;-89
2023/07/30 13:18:29;;;;;;;6.93;2.70;;;;;;;29.69;82.08;94246.34;5055648;28;20040;-91
2023/07/30 13:20:54;;;;;;;6.32;2.75;;;;;;;28.99;82.91;94245.06;5055406;28;20112;-89
2023/07/30 13:23:20;;;;;;;4.68;2.65;;;;;;;29.24;88.86;94238.06;5055397;28;20039;-92
2023/07/30 13:26:04;;;;;;;5.85;2.40;;;;;;;29.92;80.61;94239.66;5055174;28;20066;-94
2023/07/30 13:28:31;;;;;;;4.88;2.42;;;;;;;29.89;81.52;94245.88;5055214;28;20100;-90
2023/07/30 13:30:57;;;;;;;3.58;2.50;;;;;;;30.98;75.77;94239.59;5055415;28;20051;-94
2023/07/30 13:33:22;;;;;;;4.53;2.42;;;;;;;31.92;63.64;94251.28;5038878;28;20032;-92
2023/07/30 13:44:19;;;;;;;3.65;2.40;;;;;;;29.95;70.31;94241.56;5055603;28;20564;-92
2023/07/30 13:46:47;;;;;;;3.65;2.58;;;;;;;29.60;78.91;94235.22;5055002;28;20033;-92
2023/07/30 13:49:13;;;;;;;4.97;2.40;;;;;;;28.90;86.25;94240.09;5054979;28;20112;-90
2023/07/30 13:51:57;;;;;;;6.15;2.60;;;;;;;28.58;87.11;94226.63;5055594;28;20043;-91